createdAt,value
2022-11-23T00:01:19.626Z,99168.75
2022-11-23T00:03:48.742Z,99169.84
2022-11-23T00:06:16.645Z,99172.09
2022-11-23T00:08:43.735Z,99180.28
2022-11-23T00:11:11.012Z,99176.84
2022-11-23T00:13:42.966Z,99180.16
2022-11-23T00:16:24.066Z,99169.25
2022-11-23T00:19:01.329Z,99173.94
2022-11-23T00:21:30.335Z,99173.50
2022-11-23T00:23:57.080Z,99183.69
2022-11-23T00:26:24.493Z,99177.97
2022-11-23T00:28:51.274Z,99184.28
2022-11-23T00:31:20.628Z,99181.09
2022-11-23T00:33:54.115Z,99178.94
2022-11-23T00:36:23.081Z,99170.38
2022-11-23T00:38:50.781Z,99176.13
2022-11-23T00:41:18.670Z,99163.88
2022-11-23T00:43:45.808Z,99170.13
2022-11-23T00:46:18.528Z,99171.00
2022-11-23T00:48:47.421Z,99174.22
2022-11-23T00:51:27.389Z,99161.75
2022-11-23T00:53:54.719Z,99173.25
2022-11-23T00:56:24.071Z,99171.06
2022-11-23T00:58:52.301Z,99165.94
2022-11-23T01:01:22.798Z,99162.44
2022-11-23T01:03:52.876Z,99168.28
2022-11-23T01:06:30.377Z,99164.06
2022-11-23T01:09:00.536Z,99161.75
2022-11-23T01:11:29.699Z,99166.19
2022-11-23T01:13:56.794Z,99167.38
2022-11-23T01:16:26.581Z,99175.00
2022-11-23T01:19:01.579Z,99164.56
2022-11-23T01:21:30.602Z,99177.81
2022-11-23T01:23:59.966Z,99182.81
2022-11-23T01:26:28.718Z,99169.63
2022-11-23T01:28:59.491Z,99175.66
2022-11-23T01:31:29.423Z,99177.00
2022-11-23T01:33:59.253Z,99176.50
2022-11-23T01:36:35.995Z,99177.31
2022-11-23T01:39:08.767Z,99177.94
2022-11-23T01:41:50.527Z,99187.38
2022-11-23T01:44:33.893Z,99188.63
2022-11-23T01:47:09.219Z,99186.72
2022-11-23T01:49:52.830Z,99186.81
2022-11-23T01:52:25.035Z,99183.59
2022-11-23T01:54:55.765Z,99190.59
2022-11-23T01:57:51.260Z,99193.19
2022-11-23T02:00:45.763Z,99189.16
2022-11-23T02:03:18.600Z,99195.09
2022-11-23T02:05:49.874Z,99201.75
2022-11-23T02:08:27.782Z,99196.69
2022-11-23T02:11:00.290Z,99200.78
2022-11-23T02:13:29.319Z,99191.47
2022-11-23T02:15:59.799Z,99193.03
2022-11-23T02:18:37.224Z,99185.59
2022-11-23T02:21:05.329Z,99186.50
2022-11-23T02:24:00.956Z,99185.31
2022-11-23T02:26:37.797Z,99188.00
2022-11-23T02:29:12.048Z,99181.56
2022-11-23T02:31:39.187Z,99178.84
2022-11-23T02:34:06.098Z,99188.81
2022-11-23T02:36:45.842Z,99183.81
2022-11-23T02:39:13.077Z,99183.78
2022-11-23T02:41:54.834Z,99187.31
2022-11-23T02:44:37.406Z,99190.72
2022-11-23T02:47:20.940Z,99175.72
2022-11-23T02:50:19.808Z,99176.56
2022-11-23T02:52:54.523Z,99178.06
2022-11-23T02:55:28.467Z,99185.06
2022-11-23T02:57:57.446Z,99177.09
2022-11-23T03:00:27.199Z,99181.47
2022-11-23T03:02:53.953Z,99180.28
2022-11-23T03:05:20.797Z,99188.56
2022-11-23T03:07:51.594Z,99185.19
2022-11-23T03:10:19.537Z,99180.97
2022-11-23T03:12:49.116Z,99182.88
2022-11-23T03:15:16.040Z,99185.00
2022-11-23T03:17:43.206Z,99189.50
2022-11-23T03:20:12.800Z,99185.00
2022-11-23T03:22:43.020Z,99193.84
2022-11-23T03:25:10.905Z,99192.03
2022-11-23T03:27:39.558Z,99183.78
2022-11-23T03:30:09.108Z,99189.66
2022-11-23T03:32:38.613Z,99181.97
2022-11-23T03:35:06.316Z,99183.19
2022-11-23T03:37:35.276Z,99193.84
2022-11-23T03:40:02.767Z,99191.72
2022-11-23T03:42:48.368Z,99192.38
2022-11-23T03:45:15.835Z,99186.38
2022-11-23T03:47:42.540Z,99199.25
2022-11-23T03:50:09.787Z,99203.69
2022-11-23T03:52:37.253Z,99198.09
2022-11-23T03:55:04.386Z,99200.28
2022-11-23T03:57:31.302Z,99191.00
2022-11-23T04:00:00.742Z,99191.22
2022-11-23T04:02:27.496Z,99199.59
2022-11-23T04:05:07.364Z,99195.69
2022-11-23T04:08:06.539Z,99193.06
2022-11-23T04:10:33.343Z,99191.34
2022-11-23T04:13:13.977Z,99186.81
2022-11-23T04:15:40.871Z,99194.88
2022-11-23T04:18:09.092Z,99190.66
2022-11-23T04:20:38.168Z,99187.88
2022-11-23T04:23:07.134Z,99191.72
2022-11-23T04:25:38.229Z,99189.59
2022-11-23T04:28:06.258Z,99190.75
2022-11-23T04:30:32.963Z,99195.03
2022-11-23T04:33:00.820Z,99196.16
2022-11-23T04:35:27.913Z,99203.78
2022-11-23T04:37:55.138Z,99204.47
2022-11-23T04:40:25.395Z,99208.31
2022-11-23T04:43:02.312Z,99208.22
2022-11-23T04:45:32.820Z,99208.19
2022-11-23T04:48:04.879Z,99200.56
2022-11-23T04:50:35.334Z,99202.34
2022-11-23T04:53:03.986Z,99210.19
2022-11-23T04:55:37.792Z,99214.00
2022-11-23T04:58:04.797Z,99203.41
2022-11-23T05:00:34.135Z,99200.25
2022-11-23T05:03:03.091Z,99203.16
2022-11-23T05:05:33.020Z,99204.88
2022-11-23T05:08:01.947Z,99194.31
2022-11-23T05:10:46.501Z,99206.09
2022-11-23T05:13:13.977Z,99202.66
2022-11-23T05:15:40.726Z,99206.69
2022-11-23T05:18:08.391Z,99198.63
2022-11-23T05:20:38.390Z,99205.25
2022-11-23T05:23:05.190Z,99196.19
2022-11-23T05:25:43.016Z,99200.84
2022-11-23T05:28:42.652Z,99191.44
2022-11-23T05:34:24.254Z,99193.50
2022-11-23T05:42:15.201Z,99194.59
2022-11-23T05:44:42.664Z,99197.84
2022-11-23T05:47:17.704Z,99200.69
2022-11-23T05:49:44.464Z,99189.59
2022-11-23T05:52:12.968Z,99193.13
2022-11-23T05:54:39.916Z,99187.78
2022-11-23T05:57:12.401Z,99195.88
2022-11-23T05:59:40.910Z,99187.06
2022-11-23T06:02:11.219Z,99189.81
2022-11-23T06:04:37.936Z,99190.28
2022-11-23T06:07:13.379Z,99197.59
2022-11-23T06:10:00.098Z,99193.13
2022-11-23T06:12:34.561Z,99198.81
2022-11-23T06:15:03.814Z,99206.53
2022-11-23T06:17:31.069Z,99199.25
2022-11-23T06:20:02.776Z,99204.81
2022-11-23T06:22:29.944Z,99195.34
2022-11-23T06:25:02.444Z,99201.69
2022-11-23T06:27:32.139Z,99208.00
2022-11-23T06:30:01.358Z,99201.44
2022-11-23T06:32:31.002Z,99201.25
2022-11-23T06:35:00.816Z,99219.13
2022-11-23T06:37:30.865Z,99212.19
2022-11-23T06:39:57.718Z,99208.91
2022-11-23T06:42:41.294Z,99216.91
2022-11-23T06:45:18.397Z,99217.69
2022-11-23T06:47:49.693Z,99216.72
2022-11-23T06:50:17.733Z,99216.63
2022-11-23T06:52:46.194Z,99220.06
2022-11-23T06:55:15.987Z,99221.75
2022-11-23T06:57:42.847Z,99231.09
2022-11-23T07:00:12.011Z,99234.63
2022-11-23T07:02:38.870Z,99222.94
2022-11-23T07:05:06.377Z,99227.81
2022-11-23T07:07:33.282Z,99233.44
2022-11-23T07:10:08.037Z,99235.66
2022-11-23T07:12:55.149Z,99233.31
2022-11-23T07:15:23.464Z,99245.69
2022-11-23T07:17:51.876Z,99241.03
2022-11-23T07:20:28.357Z,99239.06
2022-11-23T07:23:07.115Z,99243.16
2022-11-23T07:25:36.097Z,99251.69
2022-11-23T07:28:04.419Z,99252.72
2022-11-23T07:30:33.540Z,99247.66
2022-11-23T07:33:06.080Z,99245.50
2022-11-23T07:35:33.073Z,99250.16
2022-11-23T07:38:00.774Z,99252.53
2022-11-23T07:40:30.425Z,99262.75
2022-11-23T07:43:04.094Z,99254.16
2022-11-23T07:45:31.282Z,99255.34
2022-11-23T07:48:05.129Z,99270.56
2022-11-23T07:50:32.552Z,99269.50
2022-11-23T07:52:59.234Z,99265.50
2022-11-23T07:55:26.160Z,99264.25
2022-11-23T07:57:54.957Z,99274.50
2022-11-23T08:00:29.755Z,99260.97
2022-11-23T08:05:47.771Z,99260.38
2022-11-23T08:08:14.831Z,99254.69
2022-11-23T08:10:46.175Z,99264.47
2022-11-23T08:13:15.400Z,99267.06
2022-11-23T08:15:48.846Z,99255.72
2022-11-23T08:18:20.277Z,99267.13
2022-11-23T08:20:50.448Z,99256.13
2022-11-23T08:23:17.209Z,99261.19
2022-11-23T08:25:43.979Z,99261.38
2022-11-23T08:28:11.104Z,99260.72
2022-11-23T08:30:38.423Z,99271.53
2022-11-23T08:33:09.250Z,99270.81
2022-11-23T08:35:37.055Z,99269.09
2022-11-23T08:38:11.050Z,99271.56
2022-11-23T08:40:38.425Z,99259.94
2022-11-23T08:43:05.945Z,99262.19
2022-11-23T08:45:32.696Z,99269.78
2022-11-23T08:48:03.799Z,99274.06
2022-11-23T08:50:33.237Z,99265.56
2022-11-23T08:53:00.654Z,99268.47
2022-11-23T08:55:28.644Z,99277.72
2022-11-23T08:57:57.346Z,99279.69
2022-11-23T09:00:25.318Z,99276.97
2022-11-23T09:02:52.409Z,99279.09
2022-11-23T09:05:19.117Z,99275.34
2022-11-23T09:07:45.943Z,99286.19
2022-11-23T09:10:17.992Z,99297.25
2022-11-23T09:12:46.345Z,99297.63
2022-11-23T09:15:13.154Z,99290.88
2022-11-23T09:17:42.530Z,99286.94
2022-11-23T09:20:10.383Z,99279.47
2022-11-23T09:22:37.553Z,99281.97
2022-11-23T09:25:05.135Z,99291.31
2022-11-23T09:27:31.770Z,99286.94
2022-11-23T09:29:58.581Z,99289.75
2022-11-23T09:32:25.310Z,99288.94
2022-11-23T09:34:51.997Z,99291.16
2022-11-23T09:37:18.901Z,99298.94
2022-11-23T09:39:45.705Z,99294.34
2022-11-23T09:42:40.591Z,99294.75
2022-11-23T09:45:19.179Z,99290.88
2022-11-23T09:47:51.791Z,99297.41
2022-11-23T09:50:28.504Z,99293.84
2022-11-23T09:52:55.292Z,99295.44
2022-11-23T09:55:34.598Z,99290.44
2022-11-23T09:58:04.996Z,99286.81
2022-11-23T10:00:44.818Z,99296.66
2022-11-23T10:03:17.067Z,99296.06
2022-11-23T10:05:57.786Z,99306.38
2022-11-23T10:08:45.939Z,99297.25
2022-11-23T10:11:30.912Z,99307.28
2022-11-23T10:14:24.046Z,99306.50
2022-11-23T10:17:00.683Z,99309.03
2022-11-23T10:22:49.922Z,99301.13
2022-11-23T10:25:19.463Z,99305.31
2022-11-23T10:27:48.916Z,99304.22
2022-11-23T10:30:18.178Z,99307.06
2022-11-23T10:33:13.728Z,99305.03
2022-11-23T10:35:42.931Z,99297.38
2022-11-23T10:38:18.178Z,99303.03
2022-11-23T10:41:12.696Z,99303.03
2022-11-23T10:44:02.835Z,99307.63
2022-11-23T10:46:36.785Z,99307.38
2022-11-23T10:49:21.122Z,99304.44
2022-11-23T10:51:54.252Z,99302.16
2022-11-23T10:54:27.671Z,99307.50
2022-11-23T10:56:55.296Z,99309.69
2022-11-23T10:59:42.078Z,99308.84
2022-11-23T11:02:21.818Z,99307.97
2022-11-23T11:04:55.820Z,99305.44
2022-11-23T11:07:30.913Z,99305.28
2022-11-23T11:10:03.381Z,99313.00
2022-11-23T11:12:34.633Z,99314.97
2022-11-23T11:15:21.636Z,99306.97
2022-11-23T11:18:01.755Z,99300.97
2022-11-23T11:20:28.404Z,99297.06
2022-11-23T11:23:20.390Z,99299.94
2022-11-23T11:25:51.408Z,99313.06
2022-11-23T11:28:29.721Z,99299.94
2022-11-23T11:31:15.220Z,99288.44
2022-11-23T11:34:02.793Z,99297.38
2022-11-23T11:36:40.256Z,99291.84
2022-11-23T11:39:29.251Z,99291.25
2022-11-23T11:42:02.075Z,99285.56
2022-11-23T11:44:36.892Z,99282.72
2022-11-23T11:47:13.344Z,99284.25
2022-11-23T11:49:46.770Z,99283.41
2022-11-23T11:52:27.907Z,99283.69
2022-11-23T11:55:33.387Z,99296.38
2022-11-23T11:58:10.129Z,99298.38
2022-11-23T12:00:44.791Z,99297.44
2022-11-23T12:03:27.066Z,99300.44
2022-11-23T12:05:58.662Z,99294.81
2022-11-23T12:08:43.850Z,99296.69
2022-11-23T12:11:12.776Z,99295.59
2022-11-23T12:13:43.308Z,99303.84
2022-11-23T12:16:36.941Z,99289.16
2022-11-23T12:19:43.174Z,99285.41
2022-11-23T12:22:26.691Z,99290.41
2022-11-23T12:25:19.375Z,99287.66
2022-11-23T12:28:08.049Z,99288.09
2022-11-23T12:31:06.948Z,99286.25
2022-11-23T12:34:01.156Z,99292.84
2022-11-23T12:36:37.423Z,99284.44
2022-11-23T12:39:25.712Z,99281.25
2022-11-23T12:42:27.306Z,99288.53
2022-11-23T12:45:06.173Z,99279.53
2022-11-23T12:47:54.473Z,99284.72
2022-11-23T12:50:35.496Z,99271.03
2022-11-23T12:53:06.592Z,99278.88
2022-11-23T12:55:53.319Z,99278.88
2022-11-23T12:58:29.113Z,99275.34
2022-11-23T13:01:29.451Z,99275.50
2022-11-23T13:04:20.382Z,99263.91
2022-11-23T13:07:31.393Z,99269.53
2022-11-23T13:10:12.865Z,99260.84
2022-11-23T13:13:03.146Z,99267.81
2022-11-23T13:15:46.659Z,99266.91
2022-11-23T13:18:27.931Z,99266.72
2022-11-23T13:21:00.700Z,99266.53
2022-11-23T13:23:27.556Z,99269.72
2022-11-23T13:26:38.470Z,99266.69
2022-11-23T13:29:51.514Z,99267.28
2022-11-23T13:32:40.284Z,99261.50
2022-11-23T13:35:16.124Z,99261.38
2022-11-23T13:37:58.071Z,99264.81
2022-11-23T13:40:36.903Z,99261.06
2022-11-23T13:43:20.715Z,99267.84
2022-11-23T13:46:19.541Z,99271.44
2022-11-23T13:48:56.649Z,99262.97
2022-11-23T13:51:27.648Z,99269.50
2022-11-23T13:54:03.668Z,99268.16
2022-11-23T13:56:32.273Z,99262.09
2022-11-23T13:59:23.569Z,99261.13
2022-11-23T14:02:27.046Z,99261.00
2022-11-23T14:05:15.608Z,99262.84
2022-11-23T14:07:46.247Z,99259.25
2022-11-23T14:10:24.232Z,99273.28
2022-11-23T14:13:05.270Z,99274.91
2022-11-23T14:15:39.051Z,99277.41
2022-11-23T14:18:25.957Z,99268.28
2022-11-23T14:20:59.961Z,99266.19
2022-11-23T14:23:44.789Z,99273.38
2022-11-23T14:26:28.883Z,99265.53
2022-11-23T14:29:32.829Z,99269.97
2022-11-23T14:32:45.067Z,99274.81
2022-11-23T14:35:32.539Z,99270.69
2022-11-23T14:38:20.945Z,99266.50
2022-11-23T14:41:06.874Z,99263.13
2022-11-23T14:43:35.903Z,99268.53
2022-11-23T14:46:04.486Z,99264.09
2022-11-23T14:48:33.733Z,99269.72
2022-11-23T14:51:10.042Z,99265.47
2022-11-23T14:53:46.444Z,99268.22
2022-11-23T14:56:31.921Z,99273.16
2022-11-23T14:59:18.225Z,99274.56
2022-11-23T15:01:52.503Z,99265.91
2022-11-23T15:04:34.099Z,99257.56
2022-11-23T15:07:08.541Z,99270.66
2022-11-23T15:09:55.594Z,99271.94
2022-11-23T15:12:45.603Z,99268.91
2022-11-23T15:15:52.200Z,99277.31
2022-11-23T15:18:41.164Z,99265.22
2022-11-23T15:21:11.010Z,99265.56
2022-11-23T15:23:42.880Z,99277.41
2022-11-23T15:26:46.901Z,99279.72
2022-11-23T15:29:35.603Z,99283.63
2022-11-23T15:32:29.241Z,99285.69
2022-11-23T15:34:56.576Z,99282.59
2022-11-23T15:37:25.167Z,99288.50
2022-11-23T15:39:53.777Z,99286.78
2022-11-23T15:42:23.991Z,99286.63
2022-11-23T15:44:52.303Z,99285.44
2022-11-23T15:47:27.306Z,99290.25
2022-11-23T15:50:05.182Z,99292.03
2022-11-23T15:52:38.287Z,99280.97
2022-11-23T15:55:10.027Z,99284.44
2022-11-23T15:57:41.576Z,99289.84
2022-11-23T16:00:25.681Z,99290.00
2022-11-23T16:02:53.050Z,99288.69
2022-11-23T16:05:25.472Z,99283.63
2022-11-23T16:08:15.051Z,99293.69
2022-11-23T16:10:54.766Z,99292.69
2022-11-23T16:13:38.512Z,99292.28
2022-11-23T16:16:21.986Z,99281.81
2022-11-23T16:18:56.916Z,99289.88
2022-11-23T16:21:25.341Z,99294.84
2022-11-23T16:23:56.593Z,99291.75
2022-11-23T16:26:34.260Z,99286.66
2022-11-23T16:29:02.232Z,99291.88
2022-11-23T16:31:35.611Z,99297.66
2022-11-23T16:34:09.378Z,99296.38
2022-11-23T16:36:36.175Z,99297.41
2022-11-23T16:39:05.741Z,99302.06
2022-11-23T16:41:33.050Z,99315.41
2022-11-23T16:43:59.828Z,99308.59
2022-11-23T16:46:26.684Z,99312.88
2022-11-23T16:48:55.607Z,99313.16
2022-11-23T16:51:22.331Z,99318.53
2022-11-23T16:56:36.414Z,99330.56
2022-11-23T16:59:03.178Z,99329.03
2022-11-23T17:01:30.739Z,99327.50
2022-11-23T17:03:59.025Z,99327.88
2022-11-23T17:06:25.913Z,99334.47
2022-11-23T17:09:00.563Z,99337.66
2022-11-23T17:14:19.221Z,99341.88
2022-11-23T17:16:47.252Z,99345.09
2022-11-23T17:19:22.782Z,99336.47
2022-11-23T17:21:49.574Z,99336.88
2022-11-23T17:24:16.350Z,99336.63
2022-11-23T17:26:46.698Z,99345.91
2022-11-23T17:29:17.857Z,99352.72
2022-11-23T17:31:45.635Z,99349.13
2022-11-23T17:34:14.446Z,99346.13
2022-11-23T17:36:43.018Z,99348.47
2022-11-23T17:39:30.067Z,99344.56
2022-11-23T17:42:04.990Z,99345.47
2022-11-23T17:44:32.045Z,99353.09
2022-11-23T17:47:00.327Z,99352.22
2022-11-23T17:49:28.477Z,99355.19
2022-11-23T17:51:56.025Z,99360.72
2022-11-23T17:54:23.954Z,99377.09
2022-11-23T17:56:51.709Z,99358.56
2022-11-23T17:59:19.145Z,99352.81
2022-11-23T18:01:45.866Z,99349.41
2022-11-23T18:04:12.755Z,99350.41
2022-11-23T18:06:39.400Z,99357.75
2022-11-23T18:09:09.060Z,99370.19
2022-11-23T18:11:37.954Z,99369.75
2022-11-23T18:14:04.936Z,99370.41
2022-11-23T18:16:34.307Z,99384.81
2022-11-23T18:19:00.999Z,99381.63
2022-11-23T18:21:27.759Z,99390.13
2022-11-23T18:23:54.470Z,99396.78
2022-11-23T18:26:27.191Z,99403.56
2022-11-23T18:28:54.254Z,99403.66
2022-11-23T18:31:21.648Z,99404.97
2022-11-23T18:33:48.414Z,99402.66
2022-11-23T18:36:15.263Z,99395.22
2022-11-23T18:38:45.021Z,99400.63
2022-11-23T18:41:13.343Z,99402.78
2022-11-23T18:43:40.005Z,99406.09
2022-11-23T18:46:08.253Z,99412.25
2022-11-23T18:48:35.021Z,99416.03
2022-11-23T18:51:03.228Z,99417.91
2022-11-23T18:53:30.580Z,99423.22
2022-11-23T18:56:02.640Z,99414.16
2022-11-23T18:58:42.027Z,99422.72
2022-11-23T19:01:13.101Z,99416.88
2022-11-23T19:03:41.789Z,99423.41
2022-11-23T19:06:12.021Z,99423.88
2022-11-23T19:08:46.948Z,99421.16
2022-11-23T19:11:18.067Z,99416.22
2022-11-23T19:13:47.154Z,99422.56
2022-11-23T19:16:34.030Z,99420.75
2022-11-23T19:19:03.615Z,99434.09
2022-11-23T19:21:33.395Z,99427.03
2022-11-23T19:24:00.655Z,99426.50
2022-11-23T19:26:29.476Z,99435.72
2022-11-23T19:28:57.034Z,99437.72
2022-11-23T19:31:29.324Z,99432.44
2022-11-23T19:33:58.449Z,99446.59
2022-11-23T19:36:25.565Z,99446.22
2022-11-23T19:38:56.656Z,99445.13
2022-11-23T19:41:29.543Z,99442.06
2022-11-23T19:43:59.076Z,99450.84
2022-11-23T19:46:26.635Z,99457.53
2022-11-23T19:48:58.395Z,99453.22
2022-11-23T19:51:26.025Z,99457.06
2022-11-23T19:53:52.682Z,99459.31
2022-11-23T19:56:22.724Z,99458.66
2022-11-23T19:58:54.337Z,99459.00
2022-11-23T20:01:22.820Z,99458.75
2022-11-23T20:03:52.117Z,99458.06
2022-11-23T20:06:29.820Z,99456.81
2022-11-23T20:09:02.050Z,99455.34
2022-11-23T20:11:30.631Z,99452.66
2022-11-23T20:14:01.402Z,99456.72
2022-11-23T20:16:31.474Z,99460.94
2022-11-23T20:19:07.023Z,99465.41
2022-11-23T20:21:34.600Z,99457.28
2022-11-23T20:24:11.553Z,99457.84
2022-11-23T20:26:39.051Z,99469.34
2022-11-23T20:29:07.115Z,99466.38
2022-11-23T20:31:35.391Z,99466.59
2022-11-23T20:34:06.442Z,99463.56
2022-11-23T20:36:36.023Z,99472.44
2022-11-23T20:39:05.599Z,99476.06
2022-11-23T20:41:37.995Z,99474.88
2022-11-23T20:44:14.892Z,99473.69
2022-11-23T20:49:30.118Z,99475.91
2022-11-23T20:51:59.777Z,99481.16
2022-11-23T20:54:29.320Z,99474.63
2022-11-23T20:56:58.181Z,99476.22
2022-11-23T20:59:24.964Z,99477.63
2022-11-23T21:01:52.184Z,99475.09
2022-11-23T21:04:18.955Z,99474.81
2022-11-23T21:06:45.715Z,99483.59
2022-11-23T21:09:12.524Z,99485.28
2022-11-23T21:11:57.925Z,99473.00
2022-11-23T21:14:28.151Z,99489.13
2022-11-23T21:16:58.716Z,99493.94
2022-11-23T21:19:29.946Z,99488.81
2022-11-23T21:21:57.800Z,99491.13
2022-11-23T21:24:25.529Z,99496.69
2022-11-23T21:26:52.287Z,99496.63
2022-11-23T21:29:20.751Z,99491.03
2022-11-23T21:31:49.138Z,99502.47
2022-11-23T21:34:19.053Z,99497.97
2022-11-23T21:36:45.884Z,99504.56
2022-11-23T21:39:13.657Z,99507.78
2022-11-23T21:41:40.763Z,99496.31
2022-11-23T21:44:08.792Z,99509.69
2022-11-23T21:46:39.864Z,99516.56
2022-11-23T21:49:06.959Z,99512.41
2022-11-23T21:51:34.997Z,99514.34
2022-11-23T21:54:15.628Z,99520.00
2022-11-23T21:56:44.555Z,99522.38
2022-11-23T21:59:12.509Z,99532.03
2022-11-23T22:01:43.307Z,99535.28
2022-11-23T22:04:12.331Z,99537.22
2022-11-23T22:06:40.604Z,99536.03
2022-11-23T22:09:09.563Z,99541.09
2022-11-23T22:11:37.785Z,99553.88
2022-11-23T22:14:11.949Z,99548.28
2022-11-23T22:16:43.832Z,99552.09
2022-11-23T22:19:12.618Z,99555.16
2022-11-23T22:21:40.723Z,99553.75
2022-11-23T22:24:12.949Z,99554.94
2022-11-23T22:26:39.662Z,99556.78
2022-11-23T22:29:06.880Z,99560.41
2022-11-23T22:31:34.838Z,99566.34
2022-11-23T22:34:06.838Z,99566.28
2022-11-23T22:36:33.649Z,99563.34
2022-11-23T22:39:03.074Z,99563.06
2022-11-23T22:41:34.518Z,99570.97
2022-11-23T22:44:01.378Z,99569.19
2022-11-23T22:46:28.383Z,99573.91
2022-11-23T22:48:59.546Z,99572.69
2022-11-23T22:51:28.122Z,99574.47
2022-11-23T22:53:55.940Z,99575.25
2022-11-23T22:56:22.883Z,99579.66
2022-11-23T22:58:49.960Z,99588.38
2022-11-23T23:01:20.223Z,99591.38
2022-11-23T23:03:50.680Z,99584.69
2022-11-23T23:06:21.936Z,99581.66
2022-11-23T23:08:56.607Z,99593.16
2022-11-23T23:11:25.051Z,99597.00
2022-11-23T23:13:52.475Z,99590.44
2022-11-23T23:16:19.640Z,99597.19
2022-11-23T23:18:46.558Z,99597.78
2022-11-23T23:21:18.891Z,99597.47
2022-11-23T23:23:48.587Z,99602.59
2022-11-23T23:26:18.665Z,99612.06
2022-11-23T23:28:46.998Z,99614.50
2022-11-23T23:31:16.324Z,99594.28
2022-11-23T23:33:44.414Z,99612.25
2022-11-23T23:36:22.672Z,99613.34
2022-11-23T23:38:58.525Z,99609.25
2022-11-23T23:41:25.669Z,99608.81
2022-11-23T23:43:52.604Z,99601.25
2022-11-23T23:46:19.651Z,99593.34
2022-11-23T23:48:46.881Z,99603.69
2022-11-23T23:51:15.083Z,99611.09
2022-11-23T23:53:43.250Z,99615.44
2022-11-23T23:56:27.975Z,99620.13
2022-11-23T23:58:56.914Z,99623.16
